sensor_id;sensor_type;location;lat;lon;timestamp;temperature;humidity
67186;HTU21D;54116;53.518;49.398;2023-02-13T00:02:18;-6.98;102.25
67186;HTU21D;54116;53.518;49.398;2023-02-13T00:04:44;-7.00;102.25
67186;HTU21D;54116;53.518;49.398;2023-02-13T00:07:10;-6.96;102.22
67186;HTU21D;54116;53.518;49.398;2023-02-13T00:09:37;-6.96;102.02
67186;HTU21D;54116;53.518;49.398;2023-02-13T00:12:04;-6.95;102.11
67186;HTU21D;54116;53.518;49.398;2023-02-13T00:14:30;-6.95;102.16
67186;HTU21D;54116;53.518;49.398;2023-02-13T00:16:58;-6.95;102.28
67186;HTU21D;54116;53.518;49.398;2023-02-13T00:19:24;-6.96;102.32
67186;HTU21D;54116;53.518;49.398;2023-02-13T00:21:50;-6.95;102.44
67186;HTU21D;54116;53.518;49.398;2023-02-13T00:24:16;-6.94;102.59
67186;HTU21D;54116;53.518;49.398;2023-02-13T00:26:42;-6.92;102.75
67186;HTU21D;54116;53.518;49.398;2023-02-13T00:29:08;-6.91;102.73
67186;HTU21D;54116;53.518;49.398;2023-02-13T00:31:35;-6.93;102.70
67186;HTU21D;54116;53.518;49.398;2023-02-13T00:34:01;-6.94;102.71
67186;HTU21D;54116;53.518;49.398;2023-02-13T00:36:27;-6.96;102.75
67186;HTU21D;54116;53.518;49.398;2023-02-13T00:38:53;-6.96;103.01
67186;HTU21D;54116;53.518;49.398;2023-02-13T00:41:21;-6.95;102.96
67186;HTU21D;54116;53.518;49.398;2023-02-13T00:43:47;-6.94;102.95
67186;HTU21D;54116;53.518;49.398;2023-02-13T00:46:14;-6.94;103.07
67186;HTU21D;54116;53.518;49.398;2023-02-13T00:48:41;-6.94;103.23
67186;HTU21D;54116;53.518;49.398;2023-02-13T00:51:08;-6.95;103.32
67186;HTU21D;54116;53.518;49.398;2023-02-13T00:53:35;-6.94;103.43
67186;HTU21D;54116;53.518;49.398;2023-02-13T00:56:02;-6.93;103.32
67186;HTU21D;54116;53.518;49.398;2023-02-13T00:58:29;-6.90;103.08
67186;HTU21D;54116;53.518;49.398;2023-02-13T01:00:55;-6.92;102.97
67186;HTU21D;54116;53.518;49.398;2023-02-13T01:03:22;-6.92;103.05
67186;HTU21D;54116;53.518;49.398;2023-02-13T01:05:48;-6.90;102.79
67186;HTU21D;54116;53.518;49.398;2023-02-13T01:08:16;-6.91;102.73
67186;HTU21D;54116;53.518;49.398;2023-02-13T01:10:44;-6.91;102.77
67186;HTU21D;54116;53.518;49.398;2023-02-13T01:13:11;-6.92;102.56
67186;HTU21D;54116;53.518;49.398;2023-02-13T01:15:39;-6.94;102.55
67186;HTU21D;54116;53.518;49.398;2023-02-13T01:18:05;-6.94;102.47
67186;HTU21D;54116;53.518;49.398;2023-02-13T01:20:31;-6.96;102.58
67186;HTU21D;54116;53.518;49.398;2023-02-13T01:22:57;-6.95;102.44
67186;HTU21D;54116;53.518;49.398;2023-02-13T01:25:24;-6.97;102.52
67186;HTU21D;54116;53.518;49.398;2023-02-13T01:27:50;-6.98;102.52
67186;HTU21D;54116;53.518;49.398;2023-02-13T01:30:17;-6.98;102.72
67186;HTU21D;54116;53.518;49.398;2023-02-13T01:32:45;-6.98;102.59
67186;HTU21D;54116;53.518;49.398;2023-02-13T01:35:12;-7.03;102.66
67186;HTU21D;54116;53.518;49.398;2023-02-13T01:37:38;-7.02;102.72
67186;HTU21D;54116;53.518;49.398;2023-02-13T01:40:07;-7.03;102.70
67186;HTU21D;54116;53.518;49.398;2023-02-13T01:42:34;-7.05;102.73
67186;HTU21D;54116;53.518;49.398;2023-02-13T01:45:12;-7.07;102.75
67186;HTU21D;54116;53.518;49.398;2023-02-13T01:53:15;-7.11;102.99
67186;HTU21D;54116;53.518;49.398;2023-02-13T01:56:07;-7.16;103.18
67186;HTU21D;54116;53.518;49.398;2023-02-13T01:58:38;-7.13;103.37
67186;HTU21D;54116;53.518;49.398;2023-02-13T02:01:07;-7.12;103.27
67186;HTU21D;54116;53.518;49.398;2023-02-13T02:06:06;-7.10;103.32
67186;HTU21D;54116;53.518;49.398;2023-02-13T02:08:33;-7.08;103.28
67186;HTU21D;54116;53.518;49.398;2023-02-13T02:11:08;-7.07;103.53
67186;HTU21D;54116;53.518;49.398;2023-02-13T02:13:36;-7.02;103.60
67186;HTU21D;54116;53.518;49.398;2023-02-13T02:16:02;-6.97;103.50
67186;HTU21D;54116;53.518;49.398;2023-02-13T02:18:28;-6.97;103.34
67186;HTU21D;54116;53.518;49.398;2023-02-13T02:29:09;-6.97;103.31
67186;HTU21D;54116;53.518;49.398;2023-02-13T02:40:43;-6.94;103.62
67186;HTU21D;54116;53.518;49.398;2023-02-13T02:46:15;-6.92;104.05
67186;HTU21D;54116;53.518;49.398;2023-02-13T02:48:54;-6.91;103.84
67186;HTU21D;54116;53.518;49.398;2023-02-13T02:52:18;-6.86;103.95
67186;HTU21D;54116;53.518;49.398;2023-02-13T02:55:08;-6.87;103.79
67186;HTU21D;54116;53.518;49.398;2023-02-13T02:57:48;-6.86;103.97
67186;HTU21D;54116;53.518;49.398;2023-02-13T03:00:37;-6.85;104.01
67186;HTU21D;54116;53.518;49.398;2023-02-13T03:03:24;-6.81;104.00
67186;HTU21D;54116;53.518;49.398;2023-02-13T03:06:36;-6.79;103.90
67186;HTU21D;54116;53.518;49.398;2023-02-13T03:09:09;-6.77;104.04
67186;HTU21D;54116;53.518;49.398;2023-02-13T03:11:55;-6.74;103.95
67186;HTU21D;54116;53.518;49.398;2023-02-13T03:14:40;-6.72;103.89
67186;HTU21D;54116;53.518;49.398;2023-02-13T03:17:10;-6.71;103.76
67186;HTU21D;54116;53.518;49.398;2023-02-13T03:20:14;-6.70;103.79
67186;HTU21D;54116;53.518;49.398;2023-02-13T03:26:31;-6.66;103.66
67186;HTU21D;54116;53.518;49.398;2023-02-13T03:32:36;-6.62;103.73
67186;HTU21D;54116;53.518;49.398;2023-02-13T03:38:41;-6.60;103.66
67186;HTU21D;54116;53.518;49.398;2023-02-13T03:44:07;-6.56;103.75
67186;HTU21D;54116;53.518;49.398;2023-02-13T03:46:41;-6.55;103.69
67186;HTU21D;54116;53.518;49.398;2023-02-13T03:49:20;-6.53;103.74
67186;HTU21D;54116;53.518;49.398;2023-02-13T03:52:10;-6.50;103.68
67186;HTU21D;54116;53.518;49.398;2023-02-13T03:55:08;-6.51;103.68
67186;HTU21D;54116;53.518;49.398;2023-02-13T03:57:58;-6.51;103.66
67186;HTU21D;54116;53.518;49.398;2023-02-13T04:00:50;-6.50;103.52
67186;HTU21D;54116;53.518;49.398;2023-02-13T04:03:24;-6.48;103.70
67186;HTU21D;54116;53.518;49.398;2023-02-13T04:06:03;-6.48;103.56
67186;HTU21D;54116;53.518;49.398;2023-02-13T04:08:30;-6.46;103.47
67186;HTU21D;54116;53.518;49.398;2023-02-13T04:13:51;-6.41;103.20
67186;HTU21D;54116;53.518;49.398;2023-02-13T04:16:43;-6.41;103.21
67186;HTU21D;54116;53.518;49.398;2023-02-13T04:19:10;-6.38;103.38
67186;HTU21D;54116;53.518;49.398;2023-02-13T04:21:38;-6.36;103.28
67186;HTU21D;54116;53.518;49.398;2023-02-13T04:24:06;-6.35;103.59
67186;HTU21D;54116;53.518;49.398;2023-02-13T04:26:40;-6.33;103.43
67186;HTU21D;54116;53.518;49.398;2023-02-13T04:29:07;-6.31;103.39
67186;HTU21D;54116;53.518;49.398;2023-02-13T04:31:33;-6.30;103.35
67186;HTU21D;54116;53.518;49.398;2023-02-13T04:33:59;-6.27;103.50
67186;HTU21D;54116;53.518;49.398;2023-02-13T04:36:25;-6.23;103.38
67186;HTU21D;54116;53.518;49.398;2023-02-13T04:38:51;-6.21;103.43
67186;HTU21D;54116;53.518;49.398;2023-02-13T04:41:18;-6.16;103.50
67186;HTU21D;54116;53.518;49.398;2023-02-13T04:43:44;-6.13;103.32
67186;HTU21D;54116;53.518;49.398;2023-02-13T04:46:10;-6.09;103.34
67186;HTU21D;54116;53.518;49.398;2023-02-13T04:48:36;-6.06;103.37
67186;HTU21D;54116;53.518;49.398;2023-02-13T04:51:02;-6.02;103.36
67186;HTU21D;54116;53.518;49.398;2023-02-13T04:53:28;-5.97;103.33
67186;HTU21D;54116;53.518;49.398;2023-02-13T04:55:54;-5.92;103.65
67186;HTU21D;54116;53.518;49.398;2023-02-13T04:58:20;-5.89;103.23
67186;HTU21D;54116;53.518;49.398;2023-02-13T05:00:47;-5.88;103.38
67186;HTU21D;54116;53.518;49.398;2023-02-13T05:03:13;-5.85;103.30
67186;HTU21D;54116;53.518;49.398;2023-02-13T05:05:39;-5.84;103.29
67186;HTU21D;54116;53.518;49.398;2023-02-13T05:08:07;-5.87;103.05
67186;HTU21D;54116;53.518;49.398;2023-02-13T05:10:33;-5.86;103.29
67186;HTU21D;54116;53.518;49.398;2023-02-13T05:12:59;-5.83;103.43
67186;HTU21D;54116;53.518;49.398;2023-02-13T05:15:25;-5.74;103.47
67186;HTU21D;54116;53.518;49.398;2023-02-13T05:17:52;-5.67;103.12
67186;HTU21D;54116;53.518;49.398;2023-02-13T05:20:18;-5.57;103.07
67186;HTU21D;54116;53.518;49.398;2023-02-13T05:22:50;-5.52;102.35
67186;HTU21D;54116;53.518;49.398;2023-02-13T05:25:36;-5.47;101.85
67186;HTU21D;54116;53.518;49.398;2023-02-13T05:28:03;-5.41;101.67
67186;HTU21D;54116;53.518;49.398;2023-02-13T05:30:29;-5.29;100.88
67186;HTU21D;54116;53.518;49.398;2023-02-13T05:32:55;-5.24;100.67
67186;HTU21D;54116;53.518;49.398;2023-02-13T05:35:22;-5.14;100.48
67186;HTU21D;54116;53.518;49.398;2023-02-13T05:37:49;-5.13;99.67
67186;HTU21D;54116;53.518;49.398;2023-02-13T05:40:15;-5.02;100.09
67186;HTU21D;54116;53.518;49.398;2023-02-13T05:42:42;-5.00;99.64
67186;HTU21D;54116;53.518;49.398;2023-02-13T05:45:08;-4.98;99.48
67186;HTU21D;54116;53.518;49.398;2023-02-13T05:47:34;-4.99;99.38
67186;HTU21D;54116;53.518;49.398;2023-02-13T05:50:00;-4.95;99.84
67186;HTU21D;54116;53.518;49.398;2023-02-13T05:52:27;-4.82;99.69
67186;HTU21D;54116;53.518;49.398;2023-02-13T05:54:53;-4.84;98.98
67186;HTU21D;54116;53.518;49.398;2023-02-13T05:57:19;-4.78;99.80
67186;HTU21D;54116;53.518;49.398;2023-02-13T05:59:45;-4.58;99.29
67186;HTU21D;54116;53.518;49.398;2023-02-13T06:02:11;-4.42;98.48
67186;HTU21D;54116;53.518;49.398;2023-02-13T06:04:37;-4.34;96.71
67186;HTU21D;54116;53.518;49.398;2023-02-13T06:07:03;-4.43;97.45
67186;HTU21D;54116;53.518;49.398;2023-02-13T06:09:29;-4.52;97.49
67186;HTU21D;54116;53.518;49.398;2023-02-13T06:11:55;-4.52;98.14
67186;HTU21D;54116;53.518;49.398;2023-02-13T06:14:22;-4.43;98.69
67186;HTU21D;54116;53.518;49.398;2023-02-13T06:16:48;-4.49;97.80
67186;HTU21D;54116;53.518;49.398;2023-02-13T06:19:14;-4.53;98.12
67186;HTU21D;54116;53.518;49.398;2023-02-13T06:21:40;-4.56;98.29
67186;HTU21D;54116;53.518;49.398;2023-02-13T06:24:07;-4.65;98.42
67186;HTU21D;54116;53.518;49.398;2023-02-13T06:26:34;-4.67;98.86
67186;HTU21D;54116;53.518;49.398;2023-02-13T06:29:00;-4.61;98.87
67186;HTU21D;54116;53.518;49.398;2023-02-13T06:31:26;-4.60;99.23
67186;HTU21D;54116;53.518;49.398;2023-02-13T06:33:52;-4.63;99.32
67186;HTU21D;54116;53.518;49.398;2023-02-13T06:36:18;-4.60;99.03
67186;HTU21D;54116;53.518;49.398;2023-02-13T06:38:44;-4.68;99.53
67186;HTU21D;54116;53.518;49.398;2023-02-13T06:41:10;-4.61;99.77
67186;HTU21D;54116;53.518;49.398;2023-02-13T06:43:36;-4.50;99.73
67186;HTU21D;54116;53.518;49.398;2023-02-13T06:46:06;-4.41;99.06
67186;HTU21D;54116;53.518;49.398;2023-02-13T06:48:32;-4.31;98.58
67186;HTU21D;54116;53.518;49.398;2023-02-13T06:50:59;-4.21;98.42
67186;HTU21D;54116;53.518;49.398;2023-02-13T06:53:27;-4.05;97.78
67186;HTU21D;54116;53.518;49.398;2023-02-13T06:55:54;-4.06;97.17
67186;HTU21D;54116;53.518;49.398;2023-02-13T06:58:22;-3.95;97.42
67186;HTU21D;54116;53.518;49.398;2023-02-13T07:00:50;-3.86;96.37
67186;HTU21D;54116;53.518;49.398;2023-02-13T07:03:16;-3.81;96.12
67186;HTU21D;54116;53.518;49.398;2023-02-13T07:05:42;-3.84;95.94
67186;HTU21D;54116;53.518;49.398;2023-02-13T07:08:10;-3.75;95.96
67186;HTU21D;54116;53.518;49.398;2023-02-13T07:10:37;-3.71;95.97
67186;HTU21D;54116;53.518;49.398;2023-02-13T07:13:04;-3.77;95.33
67186;HTU21D;54116;53.518;49.398;2023-02-13T07:15:34;-3.87;96.64
67186;HTU21D;54116;53.518;49.398;2023-02-13T07:18:01;-3.93;96.63
67186;HTU21D;54116;53.518;49.398;2023-02-13T07:20:28;-3.91;96.19
67186;HTU21D;54116;53.518;49.398;2023-02-13T07:23:02;-3.91;96.88
67186;HTU21D;54116;53.518;49.398;2023-02-13T07:25:29;-3.85;96.35
67186;HTU21D;54116;53.518;49.398;2023-02-13T07:28:00;-3.74;96.65
67186;HTU21D;54116;53.518;49.398;2023-02-13T07:30:27;-3.55;95.74
67186;HTU21D;54116;53.518;49.398;2023-02-13T07:33:00;-3.46;94.78
67186;HTU21D;54116;53.518;49.398;2023-02-13T07:35:26;-3.41;94.20
67186;HTU21D;54116;53.518;49.398;2023-02-13T07:37:53;-3.48;94.62
67186;HTU21D;54116;53.518;49.398;2023-02-13T07:40:20;-3.42;94.49
67186;HTU21D;54116;53.518;49.398;2023-02-13T07:42:46;-3.46;94.30
67186;HTU21D;54116;53.518;49.398;2023-02-13T07:45:12;-3.48;94.41
67186;HTU21D;54116;53.518;49.398;2023-02-13T07:47:41;-3.41;94.74
67186;HTU21D;54116;53.518;49.398;2023-02-13T07:50:08;-3.21;94.27
67186;HTU21D;54116;53.518;49.398;2023-02-13T07:52:35;-3.16;92.73
67186;HTU21D;54116;53.518;49.398;2023-02-13T07:55:04;-3.16;93.63
67186;HTU21D;54116;53.518;49.398;2023-02-13T07:57:32;-3.07;94.03
67186;HTU21D;54116;53.518;49.398;2023-02-13T07:59:58;-2.98;93.26
67186;HTU21D;54116;53.518;49.398;2023-02-13T08:02:24;-2.78;93.14
67186;HTU21D;54116;53.518;49.398;2023-02-13T08:04:51;-2.67;91.44
67186;HTU21D;54116;53.518;49.398;2023-02-13T08:07:18;-2.64;92.15
67186;HTU21D;54116;53.518;49.398;2023-02-13T08:09:44;-2.63;92.17
67186;HTU21D;54116;53.518;49.398;2023-02-13T08:12:31;-2.69;91.18
67186;HTU21D;54116;53.518;49.398;2023-02-13T08:14:57;-2.74;92.26
67186;HTU21D;54116;53.518;49.398;2023-02-13T08:17:23;-2.83;93.11
67186;HTU21D;54116;53.518;49.398;2023-02-13T08:19:49;-2.86;93.19
67186;HTU21D;54116;53.518;49.398;2023-02-13T08:22:16;-2.86;93.42
67186;HTU21D;54116;53.518;49.398;2023-02-13T08:24:42;-2.89;93.47
67186;HTU21D;54116;53.518;49.398;2023-02-13T08:27:11;-2.89;93.56
67186;HTU21D;54116;53.518;49.398;2023-02-13T08:29:38;-2.51;92.20
67186;HTU21D;54116;53.518;49.398;2023-02-13T08:32:04;-2.26;90.82
67186;HTU21D;54116;53.518;49.398;2023-02-13T08:34:30;-2.22;90.62
67186;HTU21D;54116;53.518;49.398;2023-02-13T08:36:56;-2.21;90.98
67186;HTU21D;54116;53.518;49.398;2023-02-13T08:39:22;-2.28;90.33
67186;HTU21D;54116;53.518;49.398;2023-02-13T08:41:48;-2.44;90.98
67186;HTU21D;54116;53.518;49.398;2023-02-13T08:44:15;-2.47;92.98
67186;HTU21D;54116;53.518;49.398;2023-02-13T08:46:41;-2.36;92.18
67186;HTU21D;54116;53.518;49.398;2023-02-13T08:49:07;-2.37;93.30
67186;HTU21D;54116;53.518;49.398;2023-02-13T08:51:34;-2.38;93.09
67186;HTU21D;54116;53.518;49.398;2023-02-13T08:54:00;-2.54;93.22
67186;HTU21D;54116;53.518;49.398;2023-02-13T08:56:26;-2.52;92.81
67186;HTU21D;54116;53.518;49.398;2023-02-13T08:58:52;-2.48;93.54
67186;HTU21D;54116;53.518;49.398;2023-02-13T09:01:19;-2.45;93.35
67186;HTU21D;54116;53.518;49.398;2023-02-13T09:03:45;-2.50;92.54
67186;HTU21D;54116;53.518;49.398;2023-02-13T09:06:11;-2.65;93.11
67186;HTU21D;54116;53.518;49.398;2023-02-13T09:08:37;-2.63;94.08
67186;HTU21D;54116;53.518;49.398;2023-02-13T09:11:04;-2.51;94.34
67186;HTU21D;54116;53.518;49.398;2023-02-13T09:13:33;-2.45;93.80
67186;HTU21D;54116;53.518;49.398;2023-02-13T09:16:01;-2.44;93.20
67186;HTU21D;54116;53.518;49.398;2023-02-13T09:18:27;-2.45;93.25
67186;HTU21D;54116;53.518;49.398;2023-02-13T09:21:08;-2.47;93.81
67186;HTU21D;54116;53.518;49.398;2023-02-13T09:23:37;-2.46;93.67
67186;HTU21D;54116;53.518;49.398;2023-02-13T09:26:07;-2.57;94.14
67186;HTU21D;54116;53.518;49.398;2023-02-13T09:28:34;-2.47;95.10
67186;HTU21D;54116;53.518;49.398;2023-02-13T09:31:15;-2.22;94.20
67186;HTU21D;54116;53.518;49.398;2023-02-13T09:33:43;-2.35;94.05
67186;HTU21D;54116;53.518;49.398;2023-02-13T09:36:18;-2.50;95.31
67186;HTU21D;54116;53.518;49.398;2023-02-13T09:38:47;-2.31;95.82
67186;HTU21D;54116;53.518;49.398;2023-02-13T09:41:25;-2.14;94.59
67186;HTU21D;54116;53.518;49.398;2023-02-13T09:49:35;-2.28;95.20
67186;HTU21D;54116;53.518;49.398;2023-02-13T09:52:02;-2.28;94.84
67186;HTU21D;54116;53.518;49.398;2023-02-13T09:54:28;-2.23;95.57
67186;HTU21D;54116;53.518;49.398;2023-02-13T10:02:00;-2.26;95.09
67186;HTU21D;54116;53.518;49.398;2023-02-13T10:04:46;-2.29;95.91
67186;HTU21D;54116;53.518;49.398;2023-02-13T10:12:59;-2.03;94.54
67186;HTU21D;54116;53.518;49.398;2023-02-13T10:15:47;-1.91;95.49
67186;HTU21D;54116;53.518;49.398;2023-02-13T10:18:21;-1.83;94.46
67186;HTU21D;54116;53.518;49.398;2023-02-13T10:20:53;-1.76;94.20
67186;HTU21D;54116;53.518;49.398;2023-02-13T10:23:23;-1.71;93.83
67186;HTU21D;54116;53.518;49.398;2023-02-13T10:25:56;-1.82;93.83
67186;HTU21D;54116;53.518;49.398;2023-02-13T10:28:41;-1.97;94.98
67186;HTU21D;54116;53.518;49.398;2023-02-13T10:31:13;-1.91;95.49
67186;HTU21D;54116;53.518;49.398;2023-02-13T10:33:48;-1.90;95.10
67186;HTU21D;54116;53.518;49.398;2023-02-13T10:36:21;-1.79;94.81
67186;HTU21D;54116;53.518;49.398;2023-02-13T10:38:56;-1.70;94.69
67186;HTU21D;54116;53.518;49.398;2023-02-13T10:41:24;-1.53;93.88
67186;HTU21D;54116;53.518;49.398;2023-02-13T10:46:37;-1.67;94.75
67186;HTU21D;54116;53.518;49.398;2023-02-13T10:54:51;-1.67;95.35
67186;HTU21D;54116;53.518;49.398;2023-02-13T11:00:54;-1.71;96.75
67186;HTU21D;54116;53.518;49.398;2023-02-13T11:03:23;-1.78;96.83
67186;HTU21D;54116;53.518;49.398;2023-02-13T11:05:51;-1.92;97.64
67186;HTU21D;54116;53.518;49.398;2023-02-13T11:10:46;-2.22;100.06
67186;HTU21D;54116;53.518;49.398;2023-02-13T11:13:19;-2.32;101.09
67186;HTU21D;54116;53.518;49.398;2023-02-13T11:18:22;-2.29;101.61
67186;HTU21D;54116;53.518;49.398;2023-02-13T11:21:02;-2.30;101.67
67186;HTU21D;54116;53.518;49.398;2023-02-13T11:26:11;-2.35;102.67
67186;HTU21D;54116;53.518;49.398;2023-02-13T11:28:55;-2.19;101.81
67186;HTU21D;54116;53.518;49.398;2023-02-13T11:31:33;-2.13;101.60
67186;HTU21D;54116;53.518;49.398;2023-02-13T11:34:26;-2.12;101.29
67186;HTU21D;54116;53.518;49.398;2023-02-13T11:37:06;-2.21;101.81
67186;HTU21D;54116;53.518;49.398;2023-02-13T11:39:32;-2.16;102.19
67186;HTU21D;54116;53.518;49.398;2023-02-13T11:41:58;-2.04;102.02
67186;HTU21D;54116;53.518;49.398;2023-02-13T11:46:54;-1.97;101.51
67186;HTU21D;54116;53.518;49.398;2023-02-13T11:49:26;-2.01;101.70
67186;HTU21D;54116;53.518;49.398;2023-02-13T11:51:54;-1.97;101.67
67186;HTU21D;54116;53.518;49.398;2023-02-13T11:57:03;-1.90;101.26
67186;HTU21D;54116;53.518;49.398;2023-02-13T11:59:43;-1.92;101.45
67186;HTU21D;54116;53.518;49.398;2023-02-13T12:02:28;-1.92;101.73
67186;HTU21D;54116;53.518;49.398;2023-02-13T12:05:16;-1.90;101.61
67186;HTU21D;54116;53.518;49.398;2023-02-13T12:07:43;-1.92;101.62
67186;HTU21D;54116;53.518;49.398;2023-02-13T12:10:30;-2.00;101.94
67186;HTU21D;54116;53.518;49.398;2023-02-13T12:13:04;-2.00;102.32
67186;HTU21D;54116;53.518;49.398;2023-02-13T12:15:34;-1.98;102.07
67186;HTU21D;54116;53.518;49.398;2023-02-13T12:18:18;-2.03;102.77
67186;HTU21D;54116;53.518;49.398;2023-02-13T12:24:31;-1.98;102.68
67186;HTU21D;54116;53.518;49.398;2023-02-13T12:27:29;-1.99;102.74
67186;HTU21D;54116;53.518;49.398;2023-02-13T12:29:42;-1.99;103.15
67186;HTU21D;54116;53.518;49.398;2023-02-13T12:40:55;-1.97;102.96
67186;HTU21D;54116;53.518;49.398;2023-02-13T12:46:24;-2.00;103.41
67186;HTU21D;54116;53.518;49.398;2023-02-13T12:49:25;-2.02;103.72
67186;HTU21D;54116;53.518;49.398;2023-02-13T13:20:22;-2.08;104.58
67186;HTU21D;54116;53.518;49.398;2023-02-13T13:28:32;-2.22;106.33
67186;HTU21D;54116;53.518;49.398;2023-02-13T13:30:59;-2.27;106.08
67186;HTU21D;54116;53.518;49.398;2023-02-13T13:33:26;-2.32;106.53
67186;HTU21D;54116;53.518;49.398;2023-02-13T13:49:59;-2.41;107.55
67186;HTU21D;54116;53.518;49.398;2023-02-13T13:52:30;-2.43;107.72
67186;HTU21D;54116;53.518;49.398;2023-02-13T13:54:59;-2.45;107.81
67186;HTU21D;54116;53.518;49.398;2023-02-13T14:00:26;-2.53;107.97
67186;HTU21D;54116;53.518;49.398;2023-02-13T14:03:12;-2.54;108.19
67186;HTU21D;54116;53.518;49.398;2023-02-13T14:06:08;-2.58;108.43
67186;HTU21D;54116;53.518;49.398;2023-02-13T14:13:53;-2.61;108.85
67186;HTU21D;54116;53.518;49.398;2023-02-13T14:16:42;-2.62;108.94
67186;HTU21D;54116;53.518;49.398;2023-02-13T14:19:31;-2.63;109.24
67186;HTU21D;54116;53.518;49.398;2023-02-13T14:24:49;-2.65;109.47
67186;HTU21D;54116;53.518;49.398;2023-02-13T14:27:29;-2.65;109.53
67186;HTU21D;54116;53.518;49.398;2023-02-13T14:29:57;-2.67;109.49
67186;HTU21D;54116;53.518;49.398;2023-02-13T14:35:00;-2.69;109.49
67186;HTU21D;54116;53.518;49.398;2023-02-13T14:37:29;-2.71;109.78
67186;HTU21D;54116;53.518;49.398;2023-02-13T14:42:41;-2.69;109.94
67186;HTU21D;54116;53.518;49.398;2023-02-13T14:45:17;-2.69;110.23
67186;HTU21D;54116;53.518;49.398;2023-02-13T14:47:54;-2.69;110.27
67186;HTU21D;54116;53.518;49.398;2023-02-13T14:50:31;-2.69;110.22
67186;HTU21D;54116;53.518;49.398;2023-02-13T14:53:03;-2.69;110.52
67186;HTU21D;54116;53.518;49.398;2023-02-13T14:55:39;-2.67;110.74
67186;HTU21D;54116;53.518;49.398;2023-02-13T14:58:11;-2.67;110.71
67186;HTU21D;54116;53.518;49.398;2023-02-13T15:03:39;-2.69;110.71
67186;HTU21D;54116;53.518;49.398;2023-02-13T15:06:35;-2.69;110.63
67186;HTU21D;54116;53.518;49.398;2023-02-13T15:09:11;-2.68;110.39
67186;HTU21D;54116;53.518;49.398;2023-02-13T15:11:41;-2.68;110.17
67186;HTU21D;54116;53.518;49.398;2023-02-13T15:16:58;-2.63;109.81
67186;HTU21D;54116;53.518;49.398;2023-02-13T15:19:27;-2.65;109.68
67186;HTU21D;54116;53.518;49.398;2023-02-13T15:22:01;-2.63;109.10
67186;HTU21D;54116;53.518;49.398;2023-02-13T15:24:36;-2.62;108.76
67186;HTU21D;54116;53.518;49.398;2023-02-13T15:27:05;-2.65;108.39
67186;HTU21D;54116;53.518;49.398;2023-02-13T15:29:32;-2.72;108.12
67186;HTU21D;54116;53.518;49.398;2023-02-13T15:31:58;-2.77;108.04
67186;HTU21D;54116;53.518;49.398;2023-02-13T15:34:26;-2.75;107.72
67186;HTU21D;54116;53.518;49.398;2023-02-13T15:36:53;-2.74;107.29
67186;HTU21D;54116;53.518;49.398;2023-02-13T15:39:23;-2.75;106.91
67186;HTU21D;54116;53.518;49.398;2023-02-13T15:41:53;-2.84;106.18
67186;HTU21D;54116;53.518;49.398;2023-02-13T15:44:23;-2.94;105.83
67186;HTU21D;54116;53.518;49.398;2023-02-13T15:46:51;-3.04;105.54
67186;HTU21D;54116;53.518;49.398;2023-02-13T15:49:21;-3.05;105.71
67186;HTU21D;54116;53.518;49.398;2023-02-13T15:51:50;-3.11;105.01
67186;HTU21D;54116;53.518;49.398;2023-02-13T15:56:49;-3.18;105.66
67186;HTU21D;54116;53.518;49.398;2023-02-13T15:59:18;-3.16;105.59
67186;HTU21D;54116;53.518;49.398;2023-02-13T16:01:45;-3.20;105.85
67186;HTU21D;54116;53.518;49.398;2023-02-13T16:04:15;-3.21;105.88
67186;HTU21D;54116;53.518;49.398;2023-02-13T16:06:44;-3.32;105.46
67186;HTU21D;54116;53.518;49.398;2023-02-13T16:09:32;-3.36;104.70
67186;HTU21D;54116;53.518;49.398;2023-02-13T16:12:15;-3.49;104.57
67186;HTU21D;54116;53.518;49.398;2023-02-13T16:17:28;-3.75;103.55
67186;HTU21D;54116;53.518;49.398;2023-02-13T16:19:56;-3.79;103.11
67186;HTU21D;54116;53.518;49.398;2023-02-13T16:22:34;-3.89;102.23
67186;HTU21D;54116;53.518;49.398;2023-02-13T16:27:32;-4.06;101.15
67186;HTU21D;54116;53.518;49.398;2023-02-13T16:30:02;-4.10;101.00
67186;HTU21D;54116;53.518;49.398;2023-02-13T16:32:31;-4.19;100.54
67186;HTU21D;54116;53.518;49.398;2023-02-13T16:35:27;-4.24;100.46
67186;HTU21D;54116;53.518;49.398;2023-02-13T16:37:58;-4.31;99.96
67186;HTU21D;54116;53.518;49.398;2023-02-13T16:40:39;-4.35;99.57
67186;HTU21D;54116;53.518;49.398;2023-02-13T16:43:34;-4.44;99.28
67186;HTU21D;54116;53.518;49.398;2023-02-13T16:48:41;-4.57;99.53
67186;HTU21D;54116;53.518;49.398;2023-02-13T16:51:08;-4.61;99.52
67186;HTU21D;54116;53.518;49.398;2023-02-13T16:53:35;-4.64;99.71
67186;HTU21D;54116;53.518;49.398;2023-02-13T16:56:06;-4.68;99.73
67186;HTU21D;54116;53.518;49.398;2023-02-13T16:58:34;-4.69;99.94
67186;HTU21D;54116;53.518;49.398;2023-02-13T17:01:02;-4.73;100.01
67186;HTU21D;54116;53.518;49.398;2023-02-13T17:03:30;-4.70;100.87
67186;HTU21D;54116;53.518;49.398;2023-02-13T17:06:01;-4.71;100.36
67186;HTU21D;54116;53.518;49.398;2023-02-13T17:08:31;-4.80;101.00
67186;HTU21D;54116;53.518;49.398;2023-02-13T17:11:05;-4.79;101.77
67186;HTU21D;54116;53.518;49.398;2023-02-13T17:13:33;-4.79;101.67
67186;HTU21D;54116;53.518;49.398;2023-02-13T17:15:59;-4.82;101.86
67186;HTU21D;54116;53.518;49.398;2023-02-13T17:18:26;-4.95;101.53
67186;HTU21D;54116;53.518;49.398;2023-02-13T17:20:53;-5.07;102.18
67186;HTU21D;54116;53.518;49.398;2023-02-13T17:23:22;-5.09;102.30
67186;HTU21D;54116;53.518;49.398;2023-02-13T17:25:50;-5.11;102.38
67186;HTU21D;54116;53.518;49.398;2023-02-13T17:28:24;-5.12;102.73
67186;HTU21D;54116;53.518;49.398;2023-02-13T17:30:53;-5.11;102.32
67186;HTU21D;54116;53.518;49.398;2023-02-13T17:33:27;-5.17;102.30
67186;HTU21D;54116;53.518;49.398;2023-02-13T17:35:54;-5.20;102.28
67186;HTU21D;54116;53.518;49.398;2023-02-13T17:38:20;-5.25;102.03
67186;HTU21D;54116;53.518;49.398;2023-02-13T17:40:48;-5.27;101.59
67186;HTU21D;54116;53.518;49.398;2023-02-13T17:43:16;-5.34;100.67
67186;HTU21D;54116;53.518;49.398;2023-02-13T17:45:43;-5.42;100.71
67186;HTU21D;54116;53.518;49.398;2023-02-13T17:48:10;-5.42;100.99
67186;HTU21D;54116;53.518;49.398;2023-02-13T17:50:36;-5.33;100.53
67186;HTU21D;54116;53.518;49.398;2023-02-13T17:53:12;-5.27;100.23
67186;HTU21D;54116;53.518;49.398;2023-02-13T17:55:40;-5.23;99.57
67186;HTU21D;54116;53.518;49.398;2023-02-13T17:58:06;-5.17;99.30
67186;HTU21D;54116;53.518;49.398;2023-02-13T18:00:33;-5.15;98.97
67186;HTU21D;54116;53.518;49.398;2023-02-13T18:03:00;-5.16;99.16
67186;HTU21D;54116;53.518;49.398;2023-02-13T18:05:27;-5.17;98.87
67186;HTU21D;54116;53.518;49.398;2023-02-13T18:07:53;-5.19;98.81
67186;HTU21D;54116;53.518;49.398;2023-02-13T18:10:23;-5.20;98.86
67186;HTU21D;54116;53.518;49.398;2023-02-13T18:12:50;-5.25;98.67
67186;HTU21D;54116;53.518;49.398;2023-02-13T18:15:17;-5.26;98.89
67186;HTU21D;54116;53.518;49.398;2023-02-13T18:17:44;-5.30;98.93